createdAt,value
2023-08-01T00:01:11.831Z,100.00
2023-08-01T00:03:43.346Z,100.00
2023-08-01T00:06:15.281Z,100.00
2023-08-01T00:08:46.749Z,100.00
2023-08-01T00:11:17.936Z,100.00
2023-08-01T00:13:47.784Z,100.00
2023-08-01T00:16:18.873Z,100.00
2023-08-01T00:18:48.606Z,100.00
2023-08-01T00:21:16.616Z,100.00
2023-08-01T00:23:45.094Z,100.00
2023-08-01T00:26:17.625Z,100.00
2023-08-01T00:28:50.146Z,100.00
2023-08-01T00:31:19.595Z,100.00
2023-08-01T00:33:47.954Z,100.00
2023-08-01T00:36:18.911Z,100.00
2023-08-01T00:38:48.294Z,100.00
2023-08-01T00:41:17.284Z,100.00
2023-08-01T00:43:49.665Z,100.00
2023-08-01T00:46:19.986Z,100.00
2023-08-01T00:48:49.230Z,100.00
2023-08-01T00:51:19.368Z,100.00
2023-08-01T00:53:50.783Z,100.00
2023-08-01T00:56:21.373Z,100.00
2023-08-01T00:58:53.299Z,100.00
2023-08-01T01:01:22.854Z,100.00
2023-08-01T01:03:52.473Z,100.00
2023-08-01T01:06:29.216Z,100.00
2023-08-01T01:09:00.567Z,100.00
2023-08-01T01:11:29.085Z,100.00
2023-08-01T01:13:58.924Z,100.00
2023-08-01T01:16:32.750Z,100.00
2023-08-01T01:19:02.500Z,100.00
2023-08-01T01:21:35.711Z,100.00
2023-08-01T01:24:13.108Z,100.00
2023-08-01T01:26:43.355Z,100.00
2023-08-01T01:29:14.172Z,100.00
2023-08-01T01:31:44.330Z,100.00
2023-08-01T01:34:12.600Z,100.00
2023-08-01T01:36:42.612Z,100.00
2023-08-01T01:39:13.359Z,100.00
2023-08-01T01:41:43.299Z,100.00
2023-08-01T01:44:11.571Z,100.00
2023-08-01T01:46:41.210Z,100.00
2023-08-01T01:49:09.948Z,100.00
2023-08-01T01:51:38.703Z,100.00
2023-08-01T01:54:10.572Z,100.00
2023-08-01T01:56:39.879Z,100.00
2023-08-01T01:59:08.714Z,100.00
2023-08-01T02:01:37.903Z,100.00
2023-08-01T02:04:08.314Z,100.00
2023-08-01T02:06:37.569Z,100.00
2023-08-01T02:09:06.748Z,100.00
2023-08-01T02:11:40.127Z,100.00
2023-08-01T02:14:08.381Z,100.00
2023-08-01T02:16:36.658Z,100.00
2023-08-01T02:19:04.987Z,100.00
2023-08-01T02:21:37.051Z,100.00
2023-08-01T02:24:05.946Z,100.00
2023-08-01T02:26:33.874Z,100.00
2023-08-01T02:29:04.034Z,100.00
2023-08-01T02:31:34.930Z,100.00
2023-08-01T02:34:03.436Z,100.00
2023-08-01T02:36:34.764Z,100.00
2023-08-01T02:39:04.502Z,100.00
2023-08-01T02:41:34.304Z,100.00
2023-08-01T02:44:05.900Z,100.00
2023-08-01T02:46:34.930Z,100.00
2023-08-01T02:49:05.989Z,100.00
2023-08-01T02:51:34.688Z,100.00
2023-08-01T02:54:05.773Z,100.00
2023-08-01T02:56:36.186Z,100.00
2023-08-01T02:59:09.516Z,100.00
2023-08-01T03:01:40.778Z,100.00
2023-08-01T03:04:13.723Z,100.00
2023-08-01T03:06:44.131Z,100.00
2023-08-01T03:09:12.903Z,100.00
2023-08-01T03:11:42.106Z,100.00
2023-08-01T03:14:12.579Z,100.00
2023-08-01T03:16:43.274Z,100.00
2023-08-01T03:19:14.047Z,100.00
2023-08-01T03:21:45.071Z,100.00
2023-08-01T03:24:14.229Z,100.00
2023-08-01T03:26:42.474Z,100.00
2023-08-01T03:29:14.751Z,100.00
2023-08-01T03:31:43.811Z,100.00
2023-08-01T03:34:14.602Z,100.00
2023-08-01T03:36:43.393Z,100.00
2023-08-01T03:39:11.970Z,100.00
2023-08-01T03:41:41.790Z,100.00
2023-08-01T03:44:10.094Z,100.00
2023-08-01T03:46:41.684Z,100.00
2023-08-01T03:49:10.316Z,100.00
2023-08-01T03:51:41.537Z,100.00
2023-08-01T03:54:14.234Z,100.00
2023-08-01T03:56:45.501Z,100.00
2023-08-01T03:59:20.005Z,100.00
2023-08-01T04:01:52.120Z,100.00
2023-08-01T04:04:21.276Z,100.00
2023-08-01T04:06:49.489Z,100.00
2023-08-01T04:09:18.271Z,100.00
2023-08-01T04:11:46.353Z,100.00
2023-08-01T04:14:15.393Z,100.00
2023-08-01T04:16:44.313Z,100.00
2023-08-01T04:19:16.911Z,100.00
2023-08-01T04:21:48.151Z,100.00
2023-08-01T04:24:18.816Z,100.00
2023-08-01T04:26:48.940Z,100.00
2023-08-01T04:29:18.978Z,100.00
2023-08-01T04:31:49.442Z,100.00
2023-08-01T04:34:23.890Z,100.00
2023-08-01T04:36:53.462Z,100.00
2023-08-01T04:39:26.530Z,100.00
2023-08-01T04:41:54.901Z,100.00
2023-08-01T04:44:25.173Z,100.00
2023-08-01T04:46:55.029Z,100.00
2023-08-01T04:49:25.381Z,100.00
2023-08-01T04:51:55.056Z,100.00
2023-08-01T04:54:23.617Z,100.00
2023-08-01T04:56:53.491Z,100.00
2023-08-01T04:59:21.783Z,100.00
2023-08-01T05:01:53.682Z,100.00
2023-08-01T05:04:22.757Z,100.00
2023-08-01T05:06:53.345Z,100.00
2023-08-01T05:09:23.076Z,100.00
2023-08-01T05:11:51.718Z,100.00
2023-08-01T05:14:20.392Z,100.00
2023-08-01T05:16:48.870Z,100.00
2023-08-01T05:19:17.128Z,100.00
2023-08-01T05:21:49.842Z,100.00
2023-08-01T05:24:19.557Z,100.00
2023-08-01T05:26:48.249Z,100.00
2023-08-01T05:29:17.859Z,100.00
2023-08-01T05:31:46.342Z,100.00
2023-08-01T05:34:17.407Z,100.00
2023-08-01T05:36:51.471Z,100.00
2023-08-01T05:39:22.192Z,100.00
2023-08-01T05:41:52.519Z,100.00
2023-08-01T05:44:24.282Z,100.00
2023-08-01T05:46:56.410Z,100.00
2023-08-01T05:49:27.472Z,100.00
2023-08-01T05:51:57.042Z,100.00
2023-08-01T05:54:29.456Z,100.00
2023-08-01T05:56:58.033Z,100.00
2023-08-01T05:59:26.786Z,100.00
2023-08-01T06:01:58.629Z,100.00
2023-08-01T06:04:27.121Z,100.00
2023-08-01T06:06:55.402Z,100.00
2023-08-01T06:09:28.532Z,100.00
2023-08-01T06:11:58.770Z,100.00
2023-08-01T06:14:27.386Z,100.00
2023-08-01T06:16:55.385Z,100.00
2023-08-01T06:19:23.667Z,100.00
2023-08-01T06:21:52.036Z,100.00
2023-08-01T06:24:20.594Z,100.00
2023-08-01T06:26:51.008Z,100.00
2023-08-01T06:29:21.828Z,100.00
2023-08-01T06:31:50.876Z,100.00
2023-08-01T06:34:23.792Z,100.00
2023-08-01T06:36:52.335Z,100.00
2023-08-01T06:39:21.895Z,100.00
2023-08-01T06:41:51.698Z,100.00
2023-08-01T06:44:24.366Z,100.00
2023-08-01T06:46:53.700Z,100.00
2023-08-01T06:49:22.526Z,100.00
2023-08-01T06:51:55.799Z,100.00
2023-08-01T06:54:26.841Z,100.00
2023-08-01T06:57:00.134Z,100.00
2023-08-01T06:59:36.455Z,100.00
2023-08-01T07:02:09.736Z,100.00
2023-08-01T07:04:38.701Z,100.00
2023-08-01T07:07:09.665Z,100.00
2023-08-01T07:09:40.171Z,100.00
2023-08-01T07:12:09.210Z,100.00
2023-08-01T07:14:39.058Z,100.00
2023-08-01T07:17:08.651Z,100.00
2023-08-01T07:19:37.465Z,100.00
2023-08-01T07:22:06.321Z,100.00
2023-08-01T07:24:35.827Z,100.00
2023-08-01T07:27:07.031Z,100.00
2023-08-01T07:29:35.989Z,100.00
2023-08-01T07:32:08.553Z,100.00
2023-08-01T07:34:37.307Z,100.00
2023-08-01T07:37:06.752Z,100.00
2023-08-01T07:39:36.114Z,100.00
2023-08-01T07:42:07.972Z,100.00
2023-08-01T07:44:36.921Z,100.00
2023-08-01T07:47:06.890Z,100.00
2023-08-01T07:49:39.660Z,100.00
2023-08-01T07:52:11.930Z,100.00
2023-08-01T07:54:41.040Z,100.00
2023-08-01T07:57:11.453Z,100.00
2023-08-01T07:59:45.038Z,100.00
2023-08-01T08:02:16.087Z,100.00
2023-08-01T08:04:46.776Z,100.00
2023-08-01T08:07:15.951Z,100.00
2023-08-01T08:09:46.247Z,100.00
2023-08-01T08:12:20.224Z,100.00
2023-08-01T08:14:51.507Z,100.00
2023-08-01T08:17:23.906Z,100.00
2023-08-01T08:19:53.589Z,100.00
2023-08-01T08:22:22.867Z,100.00
2023-08-01T08:24:55.156Z,100.00
2023-08-01T08:27:23.605Z,100.00
2023-08-01T08:29:55.278Z,100.00
2023-08-01T08:32:25.910Z,100.00
2023-08-01T08:34:54.290Z,100.00
2023-08-01T08:37:22.315Z,100.00
2023-08-01T08:39:51.072Z,100.00
2023-08-01T08:42:21.337Z,100.00
2023-08-01T08:44:57.009Z,100.00
2023-08-01T08:47:28.047Z,100.00
2023-08-01T08:49:58.820Z,100.00
2023-08-01T08:52:28.179Z,100.00
2023-08-01T08:54:59.949Z,100.00
2023-08-01T08:57:31.281Z,100.00
2023-08-01T09:00:02.161Z,100.00
2023-08-01T09:02:36.236Z,100.00
2023-08-01T09:05:06.937Z,100.00
2023-08-01T09:07:43.708Z,100.00
2023-08-01T09:10:14.466Z,100.00
2023-08-01T09:12:42.560Z,100.00
2023-08-01T09:15:12.551Z,100.00
2023-08-01T09:17:51.825Z,100.00
2023-08-01T09:20:23.380Z,100.00
2023-08-01T09:22:52.615Z,100.00
2023-08-01T09:25:22.980Z,100.00
2023-08-01T09:27:52.371Z,100.00
2023-08-01T09:30:22.289Z,100.00
2023-08-01T09:32:57.246Z,100.00
2023-08-01T09:35:26.096Z,100.00
2023-08-01T09:37:54.392Z,100.00
2023-08-01T09:40:23.070Z,100.00
2023-08-01T09:42:51.653Z,100.00
2023-08-01T09:45:22.798Z,100.00
2023-08-01T09:47:53.514Z,100.00
2023-08-01T09:50:28.090Z,100.00
2023-08-01T09:52:56.496Z,100.00
2023-08-01T09:55:29.031Z,100.00
2023-08-01T09:58:00.266Z,100.00
2023-08-01T10:00:30.226Z,100.00
2023-08-01T10:03:02.854Z,100.00
2023-08-01T10:05:35.591Z,100.00
2023-08-01T10:08:06.092Z,100.00
2023-08-01T10:10:37.645Z,100.00
2023-08-01T10:13:06.599Z,100.00
2023-08-01T10:15:40.619Z,100.00
2023-08-01T10:18:10.209Z,100.00
2023-08-01T10:20:42.631Z,100.00
2023-08-01T10:23:12.360Z,100.00
2023-08-01T10:25:42.437Z,100.00
2023-08-01T10:28:11.861Z,100.00
2023-08-01T10:30:41.858Z,100.00
2023-08-01T10:33:13.762Z,100.00
2023-08-01T10:35:45.944Z,100.00
2023-08-01T10:38:15.159Z,100.00
2023-08-01T10:40:45.640Z,100.00
2023-08-01T10:43:23.470Z,100.00
2023-08-01T10:46:04.702Z,100.00
2023-08-01T10:48:33.079Z,100.00
2023-08-01T10:51:03.992Z,100.00
2023-08-01T10:53:43.519Z,100.00
2023-08-01T10:56:22.385Z,100.00
2023-08-01T10:58:51.541Z,100.00
2023-08-01T11:01:22.212Z,100.00
2023-08-01T11:03:51.655Z,100.00
2023-08-01T11:06:23.626Z,100.00
2023-08-01T11:08:55.409Z,100.00
2023-08-01T11:11:27.244Z,100.00
2023-08-01T11:13:58.331Z,100.00
2023-08-01T11:16:30.683Z,100.00
2023-08-01T11:19:01.665Z,100.00
2023-08-01T11:21:36.305Z,100.00
2023-08-01T11:24:09.443Z,100.00
2023-08-01T11:26:37.738Z,100.00
2023-08-01T11:29:06.692Z,100.00
2023-08-01T11:31:36.088Z,100.00
2023-08-01T11:34:13.476Z,100.00
2023-08-01T11:36:47.677Z,100.00
2023-08-01T11:39:20.678Z,100.00
2023-08-01T11:41:52.129Z,100.00
2023-08-01T11:44:25.884Z,100.00
2023-08-01T11:46:56.815Z,100.00
2023-08-01T11:49:27.897Z,100.00
2023-08-01T11:51:58.902Z,100.00
2023-08-01T11:54:27.943Z,100.00
2023-08-01T11:57:04.785Z,100.00
2023-08-01T11:59:34.520Z,100.00
2023-08-01T12:02:02.537Z,100.00
2023-08-01T12:04:32.944Z,100.00
2023-08-01T12:07:14.109Z,100.00
2023-08-01T12:09:42.089Z,100.00
2023-08-01T12:12:11.529Z,100.00
2023-08-01T12:14:43.662Z,100.00
2023-08-01T12:17:13.590Z,100.00
2023-08-01T12:19:41.871Z,100.00
2023-08-01T12:22:15.650Z,100.00
2023-08-01T12:24:47.528Z,100.00
2023-08-01T12:27:19.552Z,100.00
2023-08-01T12:29:48.093Z,100.00
2023-08-01T12:32:20.926Z,100.00
2023-08-01T12:34:48.986Z,100.00
2023-08-01T12:37:22.049Z,100.00
2023-08-01T12:39:54.569Z,100.00
2023-08-01T12:42:23.215Z,100.00
2023-08-01T12:44:51.669Z,100.00
2023-08-01T12:47:22.088Z,100.00
2023-08-01T12:49:51.736Z,100.00
2023-08-01T12:52:26.643Z,100.00
2023-08-01T12:54:54.953Z,100.00
2023-08-01T12:57:23.696Z,100.00
2023-08-01T12:59:55.905Z,100.00
2023-08-01T13:02:25.679Z,100.00
2023-08-01T13:04:55.852Z,100.00
2023-08-01T13:07:25.305Z,100.00
2023-08-01T13:09:53.620Z,100.00
2023-08-01T13:12:21.694Z,100.00
2023-08-01T13:14:52.415Z,100.00
2023-08-01T13:17:23.831Z,100.00
2023-08-01T13:19:54.906Z,100.00
2023-08-01T13:22:25.584Z,100.00
2023-08-01T13:24:54.586Z,100.00
2023-08-01T13:27:22.741Z,100.00
2023-08-01T13:29:55.457Z,100.00
2023-08-01T13:32:24.729Z,100.00
2023-08-01T13:34:52.808Z,100.00
2023-08-01T13:37:21.046Z,100.00
2023-08-01T13:39:51.779Z,100.00
2023-08-01T13:42:20.297Z,100.00
2023-08-01T13:44:58.222Z,100.00
2023-08-01T13:47:28.251Z,100.00
2023-08-01T13:49:59.544Z,100.00
2023-08-01T13:52:27.983Z,100.00
2023-08-01T13:55:04.103Z,100.00
2023-08-01T13:57:32.768Z,100.00
2023-08-01T14:00:12.387Z,100.00
2023-08-01T14:02:45.248Z,100.00
2023-08-01T14:05:15.583Z,100.00
2023-08-01T14:07:46.628Z,100.00
2023-08-01T14:10:17.477Z,100.00
2023-08-01T14:12:47.524Z,100.00
2023-08-01T14:15:18.671Z,100.00
2023-08-01T14:17:47.112Z,100.00
2023-08-01T14:20:18.664Z,100.00
2023-08-01T14:22:49.791Z,100.00
2023-08-01T14:25:23.481Z,100.00
2023-08-01T14:27:54.784Z,100.00
2023-08-01T14:30:24.980Z,100.00
2023-08-01T14:32:53.916Z,100.00
2023-08-01T14:35:24.804Z,100.00
2023-08-01T14:37:54.512Z,100.00
2023-08-01T14:40:28.805Z,100.00
2023-08-01T14:43:01.552Z,100.00
2023-08-01T14:45:31.569Z,100.00
2023-08-01T14:48:05.082Z,100.00
2023-08-01T14:50:37.624Z,100.00
2023-08-01T14:53:07.592Z,100.00
2023-08-01T14:55:38.011Z,100.00
2023-08-01T14:58:08.015Z,100.00
2023-08-01T15:00:37.972Z,100.00
2023-08-01T15:03:11.475Z,100.00
2023-08-01T15:05:42.495Z,100.00
2023-08-01T15:08:12.580Z,100.00
2023-08-01T15:10:46.202Z,100.00
2023-08-01T15:13:15.810Z,100.00
2023-08-01T15:15:44.546Z,100.00
2023-08-01T15:18:14.288Z,100.00
2023-08-01T15:20:43.300Z,100.00
2023-08-01T15:23:16.360Z,100.00
2023-08-01T15:25:57.417Z,100.00
2023-08-01T15:28:29.368Z,100.00
2023-08-01T15:31:07.878Z,100.00
2023-08-01T15:33:39.753Z,100.00
2023-08-01T15:36:09.817Z,86.79
2023-08-01T15:38:40.326Z,68.83
2023-08-01T15:41:13.619Z,61.28
2023-08-01T15:43:42.775Z,53.53
2023-08-01T15:46:14.040Z,47.48
2023-08-01T15:48:43.112Z,46.66
2023-08-01T15:51:12.197Z,42.34
2023-08-01T15:53:41.996Z,40.21
2023-08-01T15:56:15.565Z,44.57
2023-08-01T15:58:43.731Z,50.71
2023-08-01T16:01:12.557Z,60.71
2023-08-01T16:03:45.342Z,68.39
2023-08-01T16:06:15.445Z,72.44
2023-08-01T16:08:44.136Z,74.01
2023-08-01T16:11:15.870Z,71.14
2023-08-01T16:13:46.712Z,73.70
2023-08-01T16:16:14.818Z,78.08
2023-08-01T16:18:44.365Z,84.93
2023-08-01T16:21:12.694Z,83.50
2023-08-01T16:23:43.405Z,67.85
2023-08-01T16:26:11.867Z,65.05
2023-08-01T16:28:41.664Z,61.60
2023-08-01T16:31:13.354Z,58.93
2023-08-01T16:33:44.357Z,46.31
2023-08-01T16:36:12.986Z,45.25
2023-08-01T16:38:42.659Z,48.70
2023-08-01T16:41:22.199Z,50.74
2023-08-01T16:43:55.271Z,59.36
2023-08-01T16:46:24.015Z,68.94
2023-08-01T16:48:52.313Z,74.48
2023-08-01T16:51:25.773Z,72.12
2023-08-01T16:53:57.618Z,71.56
2023-08-01T16:56:26.022Z,74.25
2023-08-01T16:58:57.279Z,81.38
2023-08-01T17:01:27.123Z,90.38
2023-08-01T17:03:55.592Z,100.00
2023-08-01T17:06:25.995Z,100.00
2023-08-01T17:09:31.893Z,100.00
2023-08-01T17:11:59.892Z,100.00
2023-08-01T17:14:30.502Z,100.00
2023-08-01T17:16:58.634Z,100.00
2023-08-01T17:19:26.686Z,100.00
2023-08-01T17:21:54.898Z,100.00
2023-08-01T17:24:25.058Z,100.00
2023-08-01T17:26:56.002Z,100.00
2023-08-01T17:29:23.924Z,100.00
2023-08-01T17:31:51.862Z,100.00
2023-08-01T17:34:19.765Z,100.00
2023-08-01T17:36:47.824Z,100.00
2023-08-01T17:39:18.482Z,100.00
2023-08-01T17:41:46.740Z,100.00
2023-08-01T17:44:18.649Z,100.00
2023-08-01T17:46:47.089Z,100.00
2023-08-01T17:49:15.065Z,100.00
2023-08-01T17:51:43.102Z,100.00
2023-08-01T17:54:12.691Z,100.00
2023-08-01T17:56:45.672Z,100.00
2023-08-01T17:59:14.306Z,100.00
2023-08-01T18:01:44.386Z,100.00
2023-08-01T18:04:12.373Z,100.00
2023-08-01T18:06:40.668Z,100.00
2023-08-01T18:09:09.108Z,100.00
2023-08-01T18:11:37.332Z,100.00
2023-08-01T18:14:07.822Z,100.00
2023-08-01T18:16:35.790Z,100.00
2023-08-01T18:19:05.429Z,100.00
2023-08-01T18:21:34.717Z,100.00
2023-08-01T18:24:02.840Z,100.00
2023-08-01T18:26:30.845Z,100.00
2023-08-01T18:28:58.794Z,100.00
2023-08-01T18:31:26.791Z,100.00
2023-08-01T18:33:56.871Z,100.00
2023-08-01T18:36:26.618Z,100.00
2023-08-01T18:38:54.630Z,100.00
2023-08-01T18:41:22.840Z,100.00
2023-08-01T18:43:53.996Z,100.00
2023-08-01T18:46:23.377Z,100.00
2023-08-01T18:48:52.598Z,100.00
2023-08-01T18:51:22.370Z,100.00
2023-08-01T18:53:52.127Z,100.00
2023-08-01T18:56:23.699Z,100.00
2023-08-01T18:58:52.002Z,100.00
2023-08-01T19:01:22.997Z,100.00
2023-08-01T19:03:53.150Z,100.00
2023-08-01T19:06:22.381Z,100.00
2023-08-01T19:08:59.241Z,100.00
2023-08-01T19:11:37.942Z,100.00
2023-08-01T19:14:06.012Z,100.00
2023-08-01T19:16:33.986Z,100.00
2023-08-01T19:19:02.199Z,100.00
2023-08-01T19:21:31.519Z,100.00
2023-08-01T19:24:01.158Z,100.00
2023-08-01T19:26:29.159Z,100.00
2023-08-01T19:28:57.395Z,100.00
2023-08-01T19:31:25.611Z,100.00
2023-08-01T19:33:53.864Z,100.00
2023-08-01T19:36:24.430Z,100.00
2023-08-01T19:38:52.560Z,100.00
2023-08-01T19:41:21.822Z,100.00
2023-08-01T19:43:51.989Z,100.00
2023-08-01T19:46:20.393Z,100.00
2023-08-01T19:48:51.830Z,100.00
2023-08-01T19:51:19.883Z,100.00
2023-08-01T19:53:50.266Z,100.00
2023-08-01T19:56:18.604Z,100.00
2023-08-01T19:58:47.889Z,100.00
2023-08-01T20:01:16.325Z,100.00
2023-08-01T20:03:44.990Z,100.00
2023-08-01T20:06:15.328Z,100.00
2023-08-01T20:08:43.993Z,100.00
2023-08-01T20:11:12.078Z,100.00
2023-08-01T20:13:39.993Z,100.00
2023-08-01T20:16:09.315Z,100.00
2023-08-01T20:18:37.235Z,100.00
2023-08-01T20:21:07.900Z,100.00
2023-08-01T20:23:39.170Z,100.00
2023-08-01T20:26:07.698Z,100.00
2023-08-01T20:28:35.912Z,100.00
2023-08-01T20:31:06.410Z,100.00
2023-08-01T20:33:36.770Z,100.00
2023-08-01T20:36:07.315Z,100.00
2023-08-01T20:38:35.678Z,100.00
2023-08-01T20:41:12.017Z,100.00
2023-08-01T20:43:40.051Z,100.00
2023-08-01T20:46:10.790Z,100.00
2023-08-01T20:48:40.090Z,100.00
2023-08-01T20:51:07.975Z,100.00
2023-08-01T20:53:36.771Z,100.00
2023-08-01T20:56:04.949Z,100.00
2023-08-01T20:58:33.188Z,100.00
2023-08-01T21:01:03.733Z,100.00
2023-08-01T21:03:33.921Z,100.00
2023-08-01T21:06:05.397Z,100.00
2023-08-01T21:08:33.429Z,100.00
2023-08-01T21:11:01.351Z,100.00
2023-08-01T21:13:29.356Z,100.00
2023-08-01T21:15:57.326Z,100.00
2023-08-01T21:18:26.384Z,100.00
2023-08-01T21:20:55.213Z,100.00
2023-08-01T21:23:24.933Z,100.00
2023-08-01T21:25:53.213Z,100.00
2023-08-01T21:28:23.724Z,100.00
2023-08-01T21:30:51.630Z,100.00
2023-08-01T21:33:22.281Z,100.00
2023-08-01T21:35:50.206Z,100.00
2023-08-01T21:38:18.215Z,100.00
2023-08-01T21:40:47.606Z,100.00
2023-08-01T21:43:17.649Z,100.00
2023-08-01T21:45:45.779Z,100.00
2023-08-01T21:48:14.301Z,100.00
2023-08-01T21:50:42.167Z,100.00
2023-08-01T21:53:10.055Z,100.00
2023-08-01T21:55:40.096Z,100.00
2023-08-01T21:58:09.787Z,100.00
2023-08-01T22:00:37.921Z,100.00
2023-08-01T22:03:05.882Z,100.00
2023-08-01T22:05:34.138Z,100.00
2023-08-01T22:08:05.008Z,100.00
2023-08-01T22:10:33.576Z,100.00
2023-08-01T22:13:02.482Z,100.00
2023-08-01T22:15:31.962Z,100.00
2023-08-01T22:17:59.957Z,100.00
2023-08-01T22:20:28.244Z,100.00
2023-08-01T22:22:59.008Z,100.00
2023-08-01T22:25:26.966Z,100.00
2023-08-01T22:27:54.832Z,100.00
2023-08-01T22:30:23.113Z,100.00
2023-08-01T22:32:52.375Z,100.00
2023-08-01T22:35:20.463Z,100.00
2023-08-01T22:37:51.434Z,100.00
2023-08-01T22:40:19.437Z,100.00
2023-08-01T22:42:47.437Z,100.00
2023-08-01T22:45:15.879Z,100.00
2023-08-01T22:47:43.894Z,100.00
2023-08-01T22:50:17.965Z,100.00
2023-08-01T22:52:45.909Z,100.00
2023-08-01T22:55:14.882Z,100.00
2023-08-01T22:57:42.788Z,100.00
2023-08-01T23:00:13.490Z,100.00
2023-08-01T23:02:45.064Z,100.00
2023-08-01T23:05:16.232Z,100.00
2023-08-01T23:07:44.550Z,100.00
2023-08-01T23:10:12.445Z,100.00
2023-08-01T23:12:41.335Z,100.00
2023-08-01T23:15:11.713Z,100.00
2023-08-01T23:17:42.118Z,100.00
2023-08-01T23:20:11.116Z,100.00
2023-08-01T23:22:40.412Z,100.00
2023-08-01T23:25:09.010Z,100.00
2023-08-01T23:27:37.015Z,100.00
2023-08-01T23:30:05.942Z,100.00
2023-08-01T23:32:33.894Z,100.00
2023-08-01T23:35:04.632Z,100.00
2023-08-01T23:37:34.887Z,100.00
2023-08-01T23:40:04.888Z,100.00
2023-08-01T23:42:33.288Z,100.00
2023-08-01T23:45:01.265Z,100.00
2023-08-01T23:47:29.481Z,100.00
2023-08-01T23:49:57.552Z,100.00
2023-08-01T23:52:25.588Z,100.00
2023-08-01T23:54:53.835Z,100.00
2023-08-01T23:57:23.365Z,100.00
2023-08-01T23:59:51.337Z,100.00
